sensor_id;sensor_type;location;lat;lon;timestamp;temperature;humidity
45945;DHT22;31655;48.972;10.686;2022-12-29T01:32:39;5.70;99.90
45945;DHT22;31655;48.972;10.686;2022-12-29T01:53:09;6.00;99.90
45945;DHT22;31655;48.972;10.686;2022-12-29T01:55:43;5.90;99.90
45945;DHT22;31655;48.972;10.686;2022-12-29T01:58:10;5.90;99.90
45945;DHT22;31655;48.972;10.686;2022-12-29T02:10:35;6.00;99.90
45945;DHT22;31655;48.972;10.686;2022-12-29T03:27:48;6.70;99.90
45945;DHT22;31655;48.972;10.686;2022-12-29T08:52:50;7.20;99.90
45945;DHT22;31655;48.972;10.686;2022-12-29T09:00:08;7.30;99.90
45945;DHT22;31655;48.972;10.686;2022-12-29T09:07:26;7.40;99.90
45945;DHT22;31655;48.972;10.686;2022-12-29T09:14:46;7.70;99.90
45945;DHT22;31655;48.972;10.686;2022-12-29T09:19:56;7.80;99.90
45945;DHT22;31655;48.972;10.686;2022-12-29T09:22:21;7.90;99.90
45945;DHT22;31655;48.972;10.686;2022-12-29T09:24:47;8.00;99.90
45945;DHT22;31655;48.972;10.686;2022-12-29T09:27:13;8.00;99.90
45945;DHT22;31655;48.972;10.686;2022-12-29T09:29:38;8.10;99.90
45945;DHT22;31655;48.972;10.686;2022-12-29T09:32:04;8.10;99.90
45945;DHT22;31655;48.972;10.686;2022-12-29T09:34:29;8.10;99.90
45945;DHT22;31655;48.972;10.686;2022-12-29T09:36:55;8.10;99.90
45945;DHT22;31655;48.972;10.686;2022-12-29T09:39:22;8.30;99.90
45945;DHT22;31655;48.972;10.686;2022-12-29T09:46:58;8.40;99.90
45945;DHT22;31655;48.972;10.686;2022-12-29T09:52:27;8.50;99.90
45945;DHT22;31655;48.972;10.686;2022-12-29T10:00:13;8.60;99.90
45945;DHT22;31655;48.972;10.686;2022-12-29T10:02:56;8.70;99.90
45945;DHT22;31655;48.972;10.686;2022-12-29T10:08:24;8.80;99.90
45945;DHT22;31655;48.972;10.686;2022-12-29T10:10:56;8.80;99.90
45945;DHT22;31655;48.972;10.686;2022-12-29T10:24:15;9.40;99.90
45945;DHT22;31655;48.972;10.686;2022-12-29T10:26:43;9.80;99.90
45945;DHT22;31655;48.972;10.686;2022-12-29T10:29:20;10.00;99.90
45945;DHT22;31655;48.972;10.686;2022-12-29T10:32:02;10.70;99.90
45945;DHT22;31655;48.972;10.686;2022-12-29T10:34:37;11.30;99.90
45945;DHT22;31655;48.972;10.686;2022-12-29T10:37:25;11.50;99.90
45945;DHT22;31655;48.972;10.686;2022-12-29T10:39:55;11.70;99.90
45945;DHT22;31655;48.972;10.686;2022-12-29T10:42:36;11.60;99.90
45945;DHT22;31655;48.972;10.686;2022-12-29T10:45:04;11.30;99.90
45945;DHT22;31655;48.972;10.686;2022-12-29T10:50:16;10.70;99.90
45945;DHT22;31655;48.972;10.686;2022-12-29T10:52:41;10.40;99.90
45945;DHT22;31655;48.972;10.686;2022-12-29T10:55:15;10.50;99.90
45945;DHT22;31655;48.972;10.686;2022-12-29T10:57:44;10.50;99.90
45945;DHT22;31655;48.972;10.686;2022-12-29T11:03:04;10.60;99.90
45945;DHT22;31655;48.972;10.686;2022-12-29T11:08:14;10.80;99.90
45945;DHT22;31655;48.972;10.686;2022-12-29T11:10:43;10.90;99.90
45945;DHT22;31655;48.972;10.686;2022-12-29T11:13:19;10.70;99.90
45945;DHT22;31655;48.972;10.686;2022-12-29T11:15:50;10.70;99.90
45945;DHT22;31655;48.972;10.686;2022-12-29T11:18:34;10.60;99.90
45945;DHT22;31655;48.972;10.686;2022-12-29T11:21:04;10.50;99.90
45945;DHT22;31655;48.972;10.686;2022-12-29T11:23:41;10.40;99.90
45945;DHT22;31655;48.972;10.686;2022-12-29T11:28:38;10.30;99.90
45945;DHT22;31655;48.972;10.686;2022-12-29T11:31:06;10.30;99.90
45945;DHT22;31655;48.972;10.686;2022-12-29T11:33:34;10.20;99.90
45945;DHT22;31655;48.972;10.686;2022-12-29T11:36:16;10.20;99.90
45945;DHT22;31655;48.972;10.686;2022-12-29T11:38:47;10.20;99.90
45945;DHT22;31655;48.972;10.686;2022-12-29T11:43:47;10.10;99.90
45945;DHT22;31655;48.972;10.686;2022-12-29T11:46:24;10.10;99.90
45945;DHT22;31655;48.972;10.686;2022-12-29T11:48:50;10.00;99.90
45945;DHT22;31655;48.972;10.686;2022-12-29T11:51:26;10.00;99.90
45945;DHT22;31655;48.972;10.686;2022-12-29T11:53:56;10.10;99.90
45945;DHT22;31655;48.972;10.686;2022-12-29T11:56:35;10.20;99.90
45945;DHT22;31655;48.972;10.686;2022-12-29T12:02:03;10.30;99.90
45945;DHT22;31655;48.972;10.686;2022-12-29T12:04:36;10.30;99.90
45945;DHT22;31655;48.972;10.686;2022-12-29T12:07:22;10.40;99.90
45945;DHT22;31655;48.972;10.686;2022-12-29T12:09:53;10.50;99.90
45945;DHT22;31655;48.972;10.686;2022-12-29T12:12:34;10.50;99.90
45945;DHT22;31655;48.972;10.686;2022-12-29T12:15:02;10.50;99.90
45945;DHT22;31655;48.972;10.686;2022-12-29T12:17:47;10.40;99.90
45945;DHT22;31655;48.972;10.686;2022-12-29T12:25:37;10.40;99.90
45945;DHT22;31655;48.972;10.686;2022-12-29T12:28:48;10.40;99.90
45945;DHT22;31655;48.972;10.686;2022-12-29T12:34:01;10.50;99.90
45945;DHT22;31655;48.972;10.686;2022-12-29T12:36:47;10.50;99.90
45945;DHT22;31655;48.972;10.686;2022-12-29T12:39:33;10.50;99.90
45945;DHT22;31655;48.972;10.686;2022-12-29T12:52:45;10.40;99.90
45945;DHT22;31655;48.972;10.686;2022-12-29T13:00:42;10.30;99.90
45945;DHT22;31655;48.972;10.686;2022-12-29T13:03:39;10.30;99.90
45945;DHT22;31655;48.972;10.686;2022-12-29T13:17:33;10.00;99.90
45945;DHT22;31655;48.972;10.686;2022-12-29T13:22:49;9.90;99.90
45945;DHT22;31655;48.972;10.686;2022-12-29T13:27:53;9.90;99.90
45945;DHT22;31655;48.972;10.686;2022-12-29T13:30:23;9.90;99.90
45945;DHT22;31655;48.972;10.686;2022-12-29T13:41:55;9.90;99.90
45945;DHT22;31655;48.972;10.686;2022-12-29T13:45:03;9.90;99.90
45945;DHT22;31655;48.972;10.686;2022-12-29T13:47:38;9.90;99.90
45945;DHT22;31655;48.972;10.686;2022-12-29T13:50:12;9.80;99.90
45945;DHT22;31655;48.972;10.686;2022-12-29T13:56:17;9.90;99.90
45945;DHT22;31655;48.972;10.686;2022-12-29T14:01:35;9.80;99.90
45945;DHT22;31655;48.972;10.686;2022-12-29T14:04:13;9.70;99.90
45945;DHT22;31655;48.972;10.686;2022-12-29T14:06:39;9.80;99.90
45945;DHT22;31655;48.972;10.686;2022-12-29T14:11:54;9.80;99.90
45945;DHT22;31655;48.972;10.686;2022-12-29T14:14:28;9.70;99.90
45945;DHT22;31655;48.972;10.686;2022-12-29T14:16:54;9.60;99.90
45945;DHT22;31655;48.972;10.686;2022-12-29T14:19:28;9.50;99.90
45945;DHT22;31655;48.972;10.686;2022-12-29T14:22:03;9.50;99.90
45945;DHT22;31655;48.972;10.686;2022-12-29T14:26:59;9.40;99.90
45945;DHT22;31655;48.972;10.686;2022-12-29T14:31:51;9.30;99.90
45945;DHT22;31655;48.972;10.686;2022-12-29T14:36:55;9.20;99.90
45945;DHT22;31655;48.972;10.686;2022-12-29T14:39:42;9.20;99.90
45945;DHT22;31655;48.972;10.686;2022-12-29T14:42:12;9.20;99.90
45945;DHT22;31655;48.972;10.686;2022-12-29T14:44:59;9.10;99.90
45945;DHT22;31655;48.972;10.686;2022-12-29T14:47:40;9.10;99.90
45945;DHT22;31655;48.972;10.686;2022-12-29T14:52:50;9.00;99.90
45945;DHT22;31655;48.972;10.686;2022-12-29T14:57:47;8.80;99.90
45945;DHT22;31655;48.972;10.686;2022-12-29T15:00:46;8.90;99.90
45945;DHT22;31655;48.972;10.686;2022-12-29T15:03:24;9.00;99.90
45945;DHT22;31655;48.972;10.686;2022-12-29T15:06:11;9.00;99.90
45945;DHT22;31655;48.972;10.686;2022-12-29T15:09:02;9.00;99.90
45945;DHT22;31655;48.972;10.686;2022-12-29T15:11:49;9.00;99.90
45945;DHT22;31655;48.972;10.686;2022-12-29T15:14:36;9.00;99.90
45945;DHT22;31655;48.972;10.686;2022-12-29T15:17:30;9.00;99.90
45945;DHT22;31655;48.972;10.686;2022-12-29T15:19:56;8.90;99.90
45945;DHT22;31655;48.972;10.686;2022-12-29T15:22:22;8.90;99.90
45945;DHT22;31655;48.972;10.686;2022-12-29T15:24:50;8.90;99.90
45945;DHT22;31655;48.972;10.686;2022-12-29T15:27:20;8.90;99.90
45945;DHT22;31655;48.972;10.686;2022-12-29T15:29:46;8.90;99.90
45945;DHT22;31655;48.972;10.686;2022-12-29T15:32:22;8.90;99.90
45945;DHT22;31655;48.972;10.686;2022-12-29T15:34:51;8.90;99.90
45945;DHT22;31655;48.972;10.686;2022-12-29T15:37:19;8.90;99.90
45945;DHT22;31655;48.972;10.686;2022-12-29T15:39:45;8.90;99.90
45945;DHT22;31655;48.972;10.686;2022-12-29T15:45:29;8.90;99.90
45945;DHT22;31655;48.972;10.686;2022-12-29T15:47:56;8.90;99.90
45945;DHT22;31655;48.972;10.686;2022-12-29T15:50:30;8.90;99.90
45945;DHT22;31655;48.972;10.686;2022-12-29T15:52:57;8.90;99.90
45945;DHT22;31655;48.972;10.686;2022-12-29T15:55:34;9.00;99.90
45945;DHT22;31655;48.972;10.686;2022-12-29T15:58:03;9.00;99.90
45945;DHT22;31655;48.972;10.686;2022-12-29T16:00:35;9.00;99.90
45945;DHT22;31655;48.972;10.686;2022-12-29T16:03:05;8.90;99.90
45945;DHT22;31655;48.972;10.686;2022-12-29T16:05:36;8.90;99.90
45945;DHT22;31655;48.972;10.686;2022-12-29T16:08:02;8.90;99.90
45945;DHT22;31655;48.972;10.686;2022-12-29T16:10:37;8.90;99.90
45945;DHT22;31655;48.972;10.686;2022-12-29T16:15:47;8.90;99.90
45945;DHT22;31655;48.972;10.686;2022-12-29T16:18:33;9.00;99.90
45945;DHT22;31655;48.972;10.686;2022-12-29T16:21:00;8.90;99.90
45945;DHT22;31655;48.972;10.686;2022-12-29T16:23:28;8.90;99.90
45945;DHT22;31655;48.972;10.686;2022-12-29T16:25:56;8.90;99.90
45945;DHT22;31655;48.972;10.686;2022-12-29T16:28:43;8.90;99.90
45945;DHT22;31655;48.972;10.686;2022-12-29T16:31:22;8.90;99.90
45945;DHT22;31655;48.972;10.686;2022-12-29T16:33:50;8.90;99.90
45945;DHT22;31655;48.972;10.686;2022-12-29T16:36:28;8.90;99.90
45945;DHT22;31655;48.972;10.686;2022-12-29T16:41:47;8.90;99.90
45945;DHT22;31655;48.972;10.686;2022-12-29T16:44:28;9.00;99.90
45945;DHT22;31655;48.972;10.686;2022-12-29T16:49:36;9.00;99.90
45945;DHT22;31655;48.972;10.686;2022-12-29T16:52:12;9.00;99.90
45945;DHT22;31655;48.972;10.686;2022-12-29T16:54:39;9.00;99.90
45945;DHT22;31655;48.972;10.686;2022-12-29T16:57:07;9.00;99.90
45945;DHT22;31655;48.972;10.686;2022-12-29T16:59:40;9.00;99.90
45945;DHT22;31655;48.972;10.686;2022-12-29T17:02:20;9.00;99.90
45945;DHT22;31655;48.972;10.686;2022-12-29T17:04:47;9.00;99.90
45945;DHT22;31655;48.972;10.686;2022-12-29T17:07:20;8.90;99.90
45945;DHT22;31655;48.972;10.686;2022-12-29T17:09:46;9.00;99.90
45945;DHT22;31655;48.972;10.686;2022-12-29T17:12:16;9.00;99.90
45945;DHT22;31655;48.972;10.686;2022-12-29T17:14:57;9.10;99.90
45945;DHT22;31655;48.972;10.686;2022-12-29T17:17:35;9.10;99.90
45945;DHT22;31655;48.972;10.686;2022-12-29T17:22:42;9.20;99.90
45945;DHT22;31655;48.972;10.686;2022-12-29T17:25:11;9.20;99.90
45945;DHT22;31655;48.972;10.686;2022-12-29T17:27:41;9.20;99.90
45945;DHT22;31655;48.972;10.686;2022-12-29T17:30:15;9.20;99.90
45945;DHT22;31655;48.972;10.686;2022-12-29T17:32:47;9.20;99.90
45945;DHT22;31655;48.972;10.686;2022-12-29T17:35:15;9.00;99.90
45945;DHT22;31655;48.972;10.686;2022-12-29T17:37:42;9.00;99.90
45945;DHT22;31655;48.972;10.686;2022-12-29T17:40:14;8.80;99.90
45945;DHT22;31655;48.972;10.686;2022-12-29T17:42:52;8.70;99.90
45945;DHT22;31655;48.972;10.686;2022-12-29T17:45:29;9.20;99.90
45945;DHT22;31655;48.972;10.686;2022-12-29T17:47:56;8.40;99.90
45945;DHT22;31655;48.972;10.686;2022-12-29T17:50:27;8.30;99.90
45945;DHT22;31655;48.972;10.686;2022-12-29T17:52:59;8.20;99.90
45945;DHT22;31655;48.972;10.686;2022-12-29T17:55:26;8.20;99.90
45945;DHT22;31655;48.972;10.686;2022-12-29T18:00:24;8.00;99.90
45945;DHT22;31655;48.972;10.686;2022-12-29T18:02:52;8.00;99.90
45945;DHT22;31655;48.972;10.686;2022-12-29T18:05:21;8.80;99.90
45945;DHT22;31655;48.972;10.686;2022-12-29T18:07:48;8.00;99.90
45945;DHT22;31655;48.972;10.686;2022-12-29T18:10:14;8.00;99.90
45945;DHT22;31655;48.972;10.686;2022-12-29T18:12:45;8.00;99.90
45945;DHT22;31655;48.972;10.686;2022-12-29T18:15:23;7.90;99.90
45945;DHT22;31655;48.972;10.686;2022-12-29T18:17:57;9.20;99.90
45945;DHT22;31655;48.972;10.686;2022-12-29T18:20:23;7.90;99.90
45945;DHT22;31655;48.972;10.686;2022-12-29T18:22:48;7.90;99.90
45945;DHT22;31655;48.972;10.686;2022-12-29T18:25:26;7.90;99.90
45945;DHT22;31655;48.972;10.686;2022-12-29T18:27:54;7.90;99.90
45945;DHT22;31655;48.972;10.686;2022-12-29T18:30:20;7.90;99.90
45945;DHT22;31655;48.972;10.686;2022-12-29T18:35:16;7.90;99.90
45945;DHT22;31655;48.972;10.686;2022-12-29T18:37:43;7.90;99.90
45945;DHT22;31655;48.972;10.686;2022-12-29T18:40:11;7.90;99.90
45945;DHT22;31655;48.972;10.686;2022-12-29T18:42:36;7.80;99.90
45945;DHT22;31655;48.972;10.686;2022-12-29T18:45:12;7.80;99.90
45945;DHT22;31655;48.972;10.686;2022-12-29T18:47:38;7.80;99.90
45945;DHT22;31655;48.972;10.686;2022-12-29T18:50:04;7.80;99.90
45945;DHT22;31655;48.972;10.686;2022-12-29T18:54:55;7.80;99.90
45945;DHT22;31655;48.972;10.686;2022-12-29T19:02:15;7.80;99.90
45945;DHT22;31655;48.972;10.686;2022-12-29T19:07:07;7.60;99.90
45945;DHT22;31655;48.972;10.686;2022-12-29T19:14:25;7.60;99.90
45945;DHT22;31655;48.972;10.686;2022-12-29T19:16:50;7.60;99.90
45945;DHT22;31655;48.972;10.686;2022-12-29T19:21:43;7.60;99.90
45945;DHT22;31655;48.972;10.686;2022-12-29T19:24:08;7.60;99.90
45945;DHT22;31655;48.972;10.686;2022-12-29T19:26:36;7.60;99.90
45945;DHT22;31655;48.972;10.686;2022-12-29T19:29:03;7.60;99.90
45945;DHT22;31655;48.972;10.686;2022-12-29T19:31:29;9.30;99.90
45945;DHT22;31655;48.972;10.686;2022-12-29T19:36:21;7.60;99.90
45945;DHT22;31655;48.972;10.686;2022-12-29T19:38:47;7.70;99.90
45945;DHT22;31655;48.972;10.686;2022-12-29T19:41:13;7.60;99.90
45945;DHT22;31655;48.972;10.686;2022-12-29T19:46:06;7.50;99.90
45945;DHT22;31655;48.972;10.686;2022-12-29T19:48:33;7.50;99.90
45945;DHT22;31655;48.972;10.686;2022-12-29T19:51:03;8.50;99.90
45945;DHT22;31655;48.972;10.686;2022-12-29T19:53:29;7.50;99.90
45945;DHT22;31655;48.972;10.686;2022-12-29T20:00:46;7.40;99.90
45945;DHT22;31655;48.972;10.686;2022-12-29T20:05:40;7.50;99.90
45945;DHT22;31655;48.972;10.686;2022-12-29T20:08:06;7.40;99.90
45945;DHT22;31655;48.972;10.686;2022-12-29T20:12:57;7.40;99.90
45945;DHT22;31655;48.972;10.686;2022-12-29T20:17:49;7.50;99.90
45945;DHT22;31655;48.972;10.686;2022-12-29T20:20:15;7.50;99.90
45945;DHT22;31655;48.972;10.686;2022-12-29T20:25:07;7.40;99.90
45945;DHT22;31655;48.972;10.686;2022-12-29T20:32:24;7.30;99.90
45945;DHT22;31655;48.972;10.686;2022-12-29T20:34:51;7.30;99.90
45945;DHT22;31655;48.972;10.686;2022-12-29T20:47:03;7.20;99.90
45945;DHT22;31655;48.972;10.686;2022-12-29T20:54:22;7.20;99.90
45945;DHT22;31655;48.972;10.686;2022-12-29T20:59:14;7.20;99.90
45945;DHT22;31655;48.972;10.686;2022-12-29T21:06:33;7.10;99.90
45945;DHT22;31655;48.972;10.686;2022-12-29T21:11:25;7.10;99.90
45945;DHT22;31655;48.972;10.686;2022-12-29T21:13:51;7.00;99.90
45945;DHT22;31655;48.972;10.686;2022-12-29T21:21:15;7.00;99.90
45945;DHT22;31655;48.972;10.686;2022-12-29T21:26:12;6.90;99.90
45945;DHT22;31655;48.972;10.686;2022-12-29T21:31:34;6.90;99.90
45945;DHT22;31655;48.972;10.686;2022-12-29T21:34:00;6.90;99.90
45945;DHT22;31655;48.972;10.686;2022-12-29T21:38:53;6.80;99.90
45945;DHT22;31655;48.972;10.686;2022-12-29T21:46:31;6.70;99.90
45945;DHT22;31655;48.972;10.686;2022-12-29T21:48:56;6.60;99.90
45945;DHT22;31655;48.972;10.686;2022-12-29T21:51:22;6.70;99.90
45945;DHT22;31655;48.972;10.686;2022-12-29T21:54:07;6.80;99.90
45945;DHT22;31655;48.972;10.686;2022-12-29T21:56:51;6.70;99.90
45945;DHT22;31655;48.972;10.686;2022-12-29T21:59:18;6.60;99.90
45945;DHT22;31655;48.972;10.686;2022-12-29T22:02:02;6.60;99.90
45945;DHT22;31655;48.972;10.686;2022-12-29T22:04:48;6.60;99.90
45945;DHT22;31655;48.972;10.686;2022-12-29T22:10:16;6.50;99.90
45945;DHT22;31655;48.972;10.686;2022-12-29T22:15:31;6.40;99.90
45945;DHT22;31655;48.972;10.686;2022-12-29T22:17:58;6.40;99.90
45945;DHT22;31655;48.972;10.686;2022-12-29T22:20:27;6.40;99.90
45945;DHT22;31655;48.972;10.686;2022-12-29T22:22:54;6.40;99.90
45945;DHT22;31655;48.972;10.686;2022-12-29T22:30:13;6.40;99.90
45945;DHT22;31655;48.972;10.686;2022-12-29T22:37:36;6.40;99.90
45945;DHT22;31655;48.972;10.686;2022-12-29T22:40:03;6.30;99.90
45945;DHT22;31655;48.972;10.686;2022-12-29T22:42:29;6.40;99.90
45945;DHT22;31655;48.972;10.686;2022-12-29T22:44:55;6.40;99.90
45945;DHT22;31655;48.972;10.686;2022-12-29T22:47:20;6.30;99.90
45945;DHT22;31655;48.972;10.686;2022-12-29T22:49:46;6.30;99.90
45945;DHT22;31655;48.972;10.686;2022-12-29T22:52:11;6.30;99.90
45945;DHT22;31655;48.972;10.686;2022-12-29T22:54:37;7.30;99.90
45945;DHT22;31655;48.972;10.686;2022-12-29T22:57:03;6.30;99.90
45945;DHT22;31655;48.972;10.686;2022-12-29T23:01:54;6.20;99.90
45945;DHT22;31655;48.972;10.686;2022-12-29T23:04:20;6.10;99.90
45945;DHT22;31655;48.972;10.686;2022-12-29T23:06:45;6.10;99.90
45945;DHT22;31655;48.972;10.686;2022-12-29T23:09:17;6.00;99.90
45945;DHT22;31655;48.972;10.686;2022-12-29T23:11:43;5.90;99.90
45945;DHT22;31655;48.972;10.686;2022-12-29T23:16:35;5.90;99.90
45945;DHT22;31655;48.972;10.686;2022-12-29T23:21:26;5.80;99.90
45945;DHT22;31655;48.972;10.686;2022-12-29T23:26:27;5.70;99.90
45945;DHT22;31655;48.972;10.686;2022-12-29T23:31:22;5.70;99.90
45945;DHT22;31655;48.972;10.686;2022-12-29T23:46:21;5.50;99.90
45945;DHT22;31655;48.972;10.686;2022-12-29T23:48:47;7.30;99.90
45945;DHT22;31655;48.972;10.686;2022-12-29T23:53:41;5.40;99.90
45945;DHT22;31655;48.972;10.686;2022-12-29T23:56:10;5.30;99.90
